Richmond, Rhode Island
Current Conditions -  °F | °C
As of 6:53 PM on Friday 24 Oct 2014 (Local Time) from KWST Reporting Station
Overcast Overcast  
Wind Chill: 53°   Ceiling: 3300
Heat Index: 53°   Visibility: 10mi
Dew Point: 42°   Wind: 5mph
Humidity: 66%   Direction: NA
Pressure: 29.76"   Gusts: NA
Location:  41.5104°N, 71.7381°W
Report Text: KWST 242253Z AUTO VRB04KT 10SM OVC033 12/06 A2976 RMK AO2 SLP076 T01170056
Loading
Personal Weather Stations






























Interactive Weather Map
Tropical Storm Tracking
New forecast layout! Learn more

10-Day Weather Forecast

Advertisements
Track Severe Weather on mobile